Pagrindinis puslapis
METAR-TAF:

METAR-TAF

Oro uostai :

Tarava, Kiribatis

platuma: 01-21N, ilguma: 172-55E, Aukštis: 2 m

Dabartinis oras

Ataskaita buvo paskelbta 41 minutes, ne 03:00 UTC
Vėjas 5 kt iš Rytų
Temperatūra 31°C
Drėgmė 75%
Slėgis 1006 hPa
Matomumas 10 km arba daugiau
Mažai debesys ne aukštis 2000 ft
Su prošvaistėmis ne aukštis 30000 ft

METAR: NGTA 260300Z 10005KT 9999 FEW020 BKN300 31/26 Q1006

Laikas: 17:41 (03:41 UTC)

Prognozė

Ataskaita buvo paskelbta 4 valandos ir 4 minutes, ne 23:37 UTC
Prognozė galioja nuo 26 metu 00 UTC su 26 metu 24 UTC
Vėjas 8 kt iš Šiaurės Vakarų
Matomumas 10 km arba daugiau
Išsisklaidę debesys ne aukštis 2000 ft
Tikimybė 40% :
Laikinai
nuo 26 metu 08 UTC su 26 metu 24 UTC
Matomumas: 3000 m
Su prošvaistėmis ne aukštis 1500 ft
Mažai debesys ne aukštis 1700 ft, Liūtiniai kamuoliniai debesys.
perkūnija, lietus

TAF: NGTA 252337Z 2600/2624 31008KT 9999 SCT020 PROB40 TEMPO 2608/2624 3000 TSRA BKN015 FEW017CB

Orai ataskaitas ir orų prognozės (METAR, TAF).

turimą stotys yra geltonos ir raudonos taškus žemėlapyje.

Perkelti pele per norėdami pamatyti stoties vardą.

Tada spustelėkite, norėdami matyti oro stebėjimo ir prognozės.

Norėdami pakeisti žemėlapį: spustelėkite ant žalios mygtukų su juodo kryžiaus žemyn,; žalią mygtuką su brūkšneliu, jei norite nutolinti; arba žalių rodyklių gretimoms žemėlapius.


METAR-TAF: